Time;durP1;ratioP1;P1;durP2;ratioP2;P2;SDS_P1;SDS_P2;PMS_P1;PMS_P2;Temp;Humidity;BMP_temperature;BMP_pressure;BME280_temperature;BME280_humidity;BME280_pressure;Samples;Min_cycle;Max_cycle;Signal;HPM_P1;HPM_P2
2024/01/28 00:02:48;;;;;;;1.02;0.70;;;18.70;39.90;;;;;;8364611;28;20037;-54
2024/01/28 00:06:48;;;;;;;1.00;0.75;;;18.70;39.90;;;;;;8365656;28;20562;-53
2024/01/28 00:10:49;;;;;;;1.00;0.80;;;18.70;39.90;;;;;;8365520;28;20037;-55
2024/01/28 00:14:50;;;;;;;1.80;0.75;;;18.70;39.90;;;;;;8365431;28;20087;-55
2024/01/28 00:18:57;;;;;;;2.28;0.70;;;18.70;39.90;;;;;;8365205;28;20037;-54
2024/01/28 00:22:58;;;;;;;0.70;0.70;;;18.70;40.00;;;;;;8365439;28;20101;-55
2024/01/28 00:26:59;;;;;;;1.73;0.60;;;18.70;40.00;;;;;;8365263;28;20048;-54
2024/01/28 00:30:59;;;;;;;0.60;0.60;;;18.60;40.00;;;;;;8364861;28;20123;-53
2024/01/28 00:35:00;;;;;;;0.80;0.80;;;18.60;40.00;;;;;;8365107;28;20593;-51
2024/01/28 00:39:02;;;;;;;1.30;0.80;;;18.60;40.00;;;;;;8364936;28;20036;-51
2024/01/28 00:43:03;;;;;;;0.70;0.60;;;18.60;40.50;;;;;;8364486;28;20104;-54
2024/01/28 00:47:04;;;;;;;;;;;18.60;40.00;;;;;;8365150;28;20099;-51
2024/01/28 00:51:04;;;;;;;1.03;0.70;;;18.60;40.00;;;;;;8364519;28;19905;-52
2024/01/28 00:55:06;;;;;;;0.50;0.50;;;18.60;40.00;;;;;;8365222;28;20029;-51
2024/01/28 00:59:07;;;;;;;0.63;0.63;;;18.60;40.00;;;;;;8363915;28;20283;-52
2024/01/28 01:03:07;;;;;;;1.23;0.80;;;18.60;40.00;;;;;;8363176;28;20029;-52
2024/01/28 01:07:09;;;;;;;0.60;0.60;;;18.60;40.10;;;;;;8364837;28;20045;-53
2024/01/28 01:11:09;;;;;;;0.60;0.60;;;18.60;40.00;;;;;;8363553;28;20029;-53
2024/01/28 01:15:10;;;;;;;0.82;0.73;;;18.60;40.00;;;;;;8363764;28;20036;-53
2024/01/28 01:19:11;;;;;;;1.00;0.70;;;18.60;40.00;;;;;;8362345;28;20033;-51
2024/01/28 01:23:12;;;;;;;0.90;0.80;;;18.60;40.10;;;;;;8363369;28;20275;-52
2024/01/28 01:27:13;;;;;;;0.97;0.70;;;18.60;40.10;;;;;;8363469;28;20052;-54
2024/01/28 01:31:13;;;;;;;;;;;18.60;40.10;;;;;;8363699;28;20337;-52
2024/01/28 01:35:14;;;;;;;0.80;0.80;;;18.60;40.10;;;;;;8363094;28;20012;-54
2024/01/28 01:39:18;;;;;;;1.20;0.73;;;18.60;40.10;;;;;;8363178;28;20104;-53
2024/01/28 01:43:21;;;;;;;0.88;0.70;;;18.60;40.10;;;;;;8362550;28;20033;-53
2024/01/28 01:47:24;;;;;;;0.70;0.70;;;18.60;40.10;;;;;;8362773;28;20031;-51
2024/01/28 01:51:25;;;;;;;0.70;0.70;;;18.60;40.10;;;;;;8362760;28;20021;-51
2024/01/28 01:55:28;;;;;;;1.38;0.60;;;18.60;40.10;;;;;;8362612;28;20075;-53
2024/01/28 01:59:30;;;;;;;0.60;0.60;;;18.60;40.70;;;;;;8362575;28;20482;-51
2024/01/28 02:03:31;;;;;;;0.55;0.55;;;18.60;40.20;;;;;;8362276;28;20036;-53
2024/01/28 02:07:31;;;;;;;0.55;0.55;;;18.50;40.10;;;;;;8362062;28;20052;-54
2024/01/28 02:11:33;;;;;;;0.52;0.52;;;18.50;40.10;;;;;;8360448;28;20048;-53
2024/01/28 02:15:37;;;;;;;0.60;0.57;;;18.50;40.10;;;;;;8361636;28;20029;-52
2024/01/28 02:19:38;;;;;;;1.00;0.80;;;18.60;40.20;;;;;;8361938;28;20474;-51
2024/01/28 02:23:39;;;;;;;0.70;0.70;;;18.50;40.20;;;;;;8361377;28;20398;-51
2024/01/28 02:27:40;;;;;;;0.80;0.70;;;18.50;40.20;;;;;;8361400;28;20291;-51
2024/01/28 02:31:45;;;;;;;0.82;0.60;;;18.50;40.20;;;;;;8361117;28;20053;-54
2024/01/28 02:35:46;;;;;;;0.60;0.60;;;18.50;40.20;;;;;;8361033;28;20048;-53
2024/01/28 02:39:47;;;;;;;0.85;0.77;;;18.50;40.20;;;;;;8361117;28;20060;-53
2024/01/28 02:43:47;;;;;;;0.50;0.50;;;18.50;40.20;;;;;;8360837;28;20124;-51
2024/01/28 02:47:48;;;;;;;0.70;0.65;;;18.50;40.20;;;;;;8360887;28;20470;-53
2024/01/28 02:51:50;;;;;;;4.57;0.80;;;18.50;40.20;;;;;;8359458;28;20048;-54
2024/01/28 02:55:55;;;;;;;0.68;0.50;;;18.50;40.20;;;;;;8360334;28;20483;-52
2024/01/28 02:59:57;;;;;;;0.73;0.60;;;18.50;40.20;;;;;;8360323;28;20063;-54
2024/01/28 03:03:58;;;;;;;0.60;0.60;;;18.50;40.20;;;;;;8360317;28;20505;-51
2024/01/28 03:07:58;;;;;;;1.10;0.65;;;18.50;40.20;;;;;;8359956;28;20738;-53
2024/01/28 03:11:59;;;;;;;0.52;0.50;;;18.50;40.30;;;;;;8358847;28;20367;-53
2024/01/28 03:16:00;;;;;;;0.60;0.50;;;18.50;40.20;;;;;;8360092;28;20033;-51
2024/01/28 03:20:00;;;;;;;0.85;0.68;;;18.50;40.20;;;;;;8359840;28;20037;-54
2024/01/28 03:24:01;;;;;;;0.97;0.67;;;18.50;40.20;;;;;;8359335;28;20065;-52
2024/01/28 03:28:02;;;;;;;1.03;0.80;;;18.50;40.20;;;;;;8359627;28;20340;-53
2024/01/28 03:32:03;;;;;;;0.93;0.70;;;18.50;40.20;;;;;;8359752;28;20648;-54
2024/01/28 03:36:04;;;;;;;0.63;0.60;;;18.50;40.20;;;;;;8358272;28;20407;-54
2024/01/28 03:40:06;;;;;;;0.52;0.52;;;18.50;40.20;;;;;;8359462;28;20402;-51
2024/01/28 03:44:07;;;;;;;0.60;0.60;;;18.50;40.20;;;;;;8359551;28;20040;-51
2024/01/28 03:48:07;;;;;;;0.75;0.65;;;18.50;40.20;;;;;;8359544;28;20678;-51
2024/01/28 03:52:08;;;;;;;0.43;0.43;;;18.50;40.20;;;;;;8359514;28;20191;-52
2024/01/28 03:56:09;;;;;;;0.60;0.60;;;18.50;40.20;;;;;;8359292;28;20033;-49
2024/01/28 04:00:11;;;;;;;;;;;18.50;40.20;;;;;;8359951;28;20104;-49
2024/01/28 04:04:12;;;;;;;0.75;0.60;;;18.50;40.20;;;;;;8359214;28;19909;-49
2024/01/28 04:08:13;;;;;;;0.70;0.60;;;18.50;40.20;;;;;;8357742;28;20578;-51
2024/01/28 04:12:14;;;;;;;0.60;0.50;;;18.50;40.20;;;;;;8359462;28;20433;-51
2024/01/28 04:16:14;;;;;;;0.57;0.57;;;18.50;40.20;;;;;;8359456;28;20302;-49
2024/01/28 04:20:15;;;;;;;0.60;0.60;;;18.50;40.20;;;;;;8358798;28;20478;-50
2024/01/28 04:24:16;;;;;;;0.50;0.50;;;18.50;40.20;;;;;;8359028;28;20037;-50
2024/01/28 04:28:16;;;;;;;0.70;0.50;;;18.50;40.20;;;;;;8359067;28;20063;-51
2024/01/28 04:32:17;;;;;;;0.57;0.57;;;18.50;40.20;;;;;;8359032;28;20641;-50
2024/01/28 04:36:18;;;;;;;0.70;0.70;;;18.50;40.20;;;;;;8362410;28;20298;-52
2024/01/28 04:40:18;;;;;;;0.93;0.63;;;18.50;40.20;;;;;;8364607;28;20033;-51
2024/01/28 04:44:20;;;;;;;0.65;0.65;;;18.50;40.20;;;;;;8365356;28;20041;-50
2024/01/28 04:48:21;;;;;;;0.70;0.70;;;18.50;40.20;;;;;;8364422;28;20055;-52
2024/01/28 04:52:22;;;;;;;0.60;0.60;;;18.50;40.20;;;;;;8364254;28;20117;-49
2024/01/28 04:56:23;;;;;;;0.57;0.57;;;18.50;40.20;;;;;;8364313;28;20050;-50
2024/01/28 05:00:24;;;;;;;0.57;0.57;;;18.50;40.20;;;;;;8364224;28;20043;-52
2024/01/28 05:04:24;;;;;;;0.90;0.65;;;18.50;40.20;;;;;;8363805;28;20139;-49
2024/01/28 05:08:25;;;;;;;0.70;0.65;;;18.50;40.20;;;;;;8362499;28;20081;-54
2024/01/28 05:12:26;;;;;;;0.30;0.30;;;18.50;40.30;;;;;;8363878;28;20079;-54
2024/01/28 05:16:27;;;;;;;0.55;0.55;;;18.50;40.20;;;;;;8363426;28;20796;-55
2024/01/28 05:20:28;;;;;;;0.55;0.55;;;18.50;40.20;;;;;;8363507;28;20025;-55
2024/01/28 05:24:28;;;;;;;1.05;0.70;;;18.50;40.20;;;;;;8363266;28;20037;-55
2024/01/28 05:28:30;;;;;;;0.65;0.50;;;18.50;40.20;;;;;;8363045;28;20041;-54
2024/01/28 05:32:30;;;;;;;;;;;18.40;40.20;;;;;;8363773;28;20037;-54
2024/01/28 05:36:31;;;;;;;0.60;0.40;;;18.40;40.20;;;;;;8363128;28;19964;-54
2024/01/28 05:40:32;;;;;;;0.82;0.50;;;18.50;40.30;;;;;;8361650;28;20082;-54
2024/01/28 05:44:33;;;;;;;0.52;0.52;;;18.50;40.20;;;;;;8361775;28;20110;-55
2024/01/28 05:48:34;;;;;;;0.70;0.60;;;18.50;40.20;;;;;;8361957;28;20552;-55
2024/01/28 05:52:34;;;;;;;0.63;0.60;;;18.50;40.30;;;;;;8362769;28;20684;-55
2024/01/28 05:56:35;;;;;;;0.70;0.52;;;18.40;40.20;;;;;;8360997;28;20045;-54
2024/01/28 06:00:36;;;;;;;2.35;0.60;;;18.50;40.20;;;;;;8362230;28;20033;-55
2024/01/28 06:04:37;;;;;;;1.25;0.70;;;18.50;40.20;;;;;;8362530;28;20032;-53
2024/01/28 06:08:37;;;;;;;0.63;0.60;;;18.50;40.20;;;;;;8361672;28;20053;-54
2024/01/28 06:12:38;;;;;;;0.50;0.50;;;18.40;40.20;;;;;;8362047;28;20103;-54
2024/01/28 06:16:39;;;;;;;0.70;0.70;;;18.50;40.20;;;;;;8361955;28;20037;-53
2024/01/28 06:20:39;;;;;;;0.85;0.70;;;18.50;40.20;;;;;;8360353;28;20021;-54
2024/01/28 06:24:42;;;;;;;0.50;0.50;;;18.50;40.20;;;;;;8361574;28;20029;-54
2024/01/28 06:28:43;;;;;;;0.77;0.63;;;18.60;40.10;;;;;;8360331;28;20037;-52
2024/01/28 06:32:43;;;;;;;;;;;18.60;40.00;;;;;;8361919;28;20039;-54
2024/01/28 06:36:44;;;;;;;0.57;0.57;;;18.70;39.90;;;;;;8361048;28;19909;-52
2024/01/28 06:40:45;;;;;;;0.40;0.40;;;18.70;39.90;;;;;;8361126;28;20087;-54
2024/01/28 06:44:49;;;;;;;0.52;0.50;;;18.70;39.90;;;;;;8360778;28;20037;-54
2024/01/28 06:48:50;;;;;;;0.52;0.50;;;18.70;39.80;;;;;;8360848;28;20094;-51
2024/01/28 06:52:50;;;;;;;0.52;0.52;;;18.70;39.80;;;;;;8360958;28;20475;-52
2024/01/28 06:56:51;;;;;;;0.68;0.68;;;18.70;39.80;;;;;;8360452;28;20044;-53
2024/01/28 07:00:52;;;;;;;0.50;0.50;;;18.70;39.80;;;;;;8359616;28;20390;-51
2024/01/28 07:04:52;;;;;;;0.85;0.70;;;18.70;39.80;;;;;;8360294;28;20041;-54
2024/01/28 07:08:53;;;;;;;0.40;0.40;;;18.80;39.80;;;;;;8359122;28;20098;-53
2024/01/28 07:12:54;;;;;;;1.30;0.70;;;18.70;39.80;;;;;;8360294;28;20115;-54
2024/01/28 07:16:55;;;;;;;0.40;0.40;;;18.80;39.80;;;;;;8360067;28;20040;-54
2024/01/28 07:20:56;;;;;;;0.50;0.50;;;18.70;40.10;;;;;;8360576;28;20535;-51
2024/01/28 07:24:56;;;;;;;0.50;0.50;;;18.80;39.80;;;;;;8360127;28;20287;-54
2024/01/28 07:28:57;;;;;;;0.60;0.50;;;18.80;39.80;;;;;;8358835;28;20040;-55
2024/01/28 07:32:58;;;;;;;0.70;0.60;;;18.80;39.80;;;;;;8358602;28;20096;-54
2024/01/28 07:36:59;;;;;;;0.70;0.60;;;18.80;39.80;;;;;;8360108;28;20772;-54
2024/01/28 07:40:59;;;;;;;0.60;0.50;;;18.80;39.80;;;;;;8359543;28;20116;-55
2024/01/28 07:45:00;;;;;;;0.50;0.50;;;18.80;39.80;;;;;;8359652;28;20033;-55
2024/01/28 07:49:01;;;;;;;0.70;0.70;;;18.80;39.80;;;;;;8358420;28;20037;-54
2024/01/28 07:53:01;;;;;;;0.73;0.50;;;18.80;39.80;;;;;;8359527;28;20453;-55
2024/01/28 07:57:02;;;;;;;0.50;0.50;;;18.80;39.80;;;;;;8359634;28;20372;-54
2024/01/28 08:01:05;;;;;;;0.70;0.70;;;18.80;39.80;;;;;;8359397;28;20490;-55
2024/01/28 08:05:06;;;;;;;0.55;0.50;;;18.80;39.80;;;;;;8359448;28;20155;-55
2024/01/28 08:09:06;;;;;;;0.55;0.55;;;18.80;39.80;;;;;;8359628;28;20107;-55
2024/01/28 08:13:07;;;;;;;0.60;0.60;;;18.80;39.80;;;;;;8365650;28;20032;-54
2024/01/28 08:17:08;;;;;;;0.60;0.60;;;18.80;39.80;;;;;;8364443;28;20287;-54
2024/01/28 08:21:09;;;;;;;;;;;18.80;39.70;;;;;;8365921;28;20119;-54
2024/01/28 08:25:11;;;;;;;0.50;0.50;;;18.80;39.70;;;;;;8365058;28;19909;-55
2024/01/28 08:29:12;;;;;;;0.50;0.50;;;18.80;39.70;;;;;;8364985;28;20041;-54
2024/01/28 08:33:13;;;;;;;0.85;0.55;;;18.80;39.70;;;;;;8365266;28;20086;-55
2024/01/28 08:37:13;;;;;;;0.75;0.75;;;18.80;39.70;;;;;;8364919;28;20112;-51
2024/01/28 08:41:14;;;;;;;0.70;0.47;;;18.80;39.70;;;;;;8363567;28;20408;-52
2024/01/28 08:45:15;;;;;;;0.70;0.70;;;18.80;39.70;;;;;;8364893;28;20043;-52
2024/01/28 08:49:16;;;;;;;0.63;0.60;;;18.80;39.70;;;;;;8363805;28;20275;-51
2024/01/28 08:53:16;;;;;;;0.85;0.50;;;18.80;39.70;;;;;;8364867;28;20294;-54
2024/01/28 08:57:18;;;;;;;0.50;0.50;;;18.80;39.70;;;;;;8362926;28;20033;-54
2024/01/28 09:01:19;;;;;;;0.60;0.60;;;18.80;39.70;;;;;;8364251;28;20078;-53
2024/01/28 09:05:20;;;;;;;0.40;0.40;;;18.80;39.70;;;;;;8364046;28;20095;-52
2024/01/28 09:09:21;;;;;;;0.68;0.68;;;18.80;39.80;;;;;;8363873;28;20411;-52
2024/01/28 09:13:23;;;;;;;0.98;0.60;;;18.80;39.80;;;;;;8363697;28;20112;-54
2024/01/28 09:17:24;;;;;;;0.43;0.43;;;18.80;39.80;;;;;;8363851;28;20029;-53
2024/01/28 09:21:25;;;;;;;0.57;0.57;;;18.80;40.30;;;;;;8361515;28;20482;-51
2024/01/28 09:25:28;;;;;;;0.70;0.60;;;18.80;39.80;;;;;;8363375;28;20737;-54
2024/01/28 09:29:30;;;;;;;0.88;0.68;;;18.80;39.80;;;;;;8363232;28;20040;-52
2024/01/28 09:33:31;;;;;;;0.63;0.63;;;18.80;39.80;;;;;;8363246;28;20040;-51
2024/01/28 09:37:31;;;;;;;0.73;0.70;;;18.80;39.70;;;;;;8362980;28;20502;-54
2024/01/28 09:41:49;;;;;;;0.68;0.57;;;18.80;39.70;;;;;;8362889;28;20037;-52
2024/01/28 09:45:50;;;;;;;0.50;0.50;;;18.80;39.70;;;;;;8362663;28;20029;-52
2024/01/28 09:49:51;;;;;;;1.35;0.60;;;18.80;39.70;;;;;;8362722;28;20072;-55
2024/01/28 09:53:52;;;;;;;0.77;0.68;;;18.80;39.70;;;;;;8362527;28;20048;-55
2024/01/28 09:57:53;;;;;;;0.60;0.60;;;18.80;39.70;;;;;;8362307;28;20029;-53
2024/01/28 10:01:54;;;;;;;0.70;0.70;;;18.80;39.80;;;;;;8362063;28;20091;-55
2024/01/28 10:05:55;;;;;;;0.50;0.50;;;18.80;39.70;;;;;;8362134;28;20471;-54
2024/01/28 10:09:55;;;;;;;0.60;0.60;;;18.80;39.80;;;;;;8361984;28;20415;-55
2024/01/28 10:13:56;;;;;;;0.50;0.50;;;18.80;39.80;;;;;;8361552;28;20279;-54
2024/01/28 10:17:57;;;;;;;0.50;0.50;;;18.80;39.80;;;;;;8361689;28;20334;-53
2024/01/28 10:21:59;;;;;;;0.50;0.50;;;18.80;39.80;;;;;;8361876;28;20029;-54
2024/01/28 10:26:01;;;;;;;1.25;0.57;;;18.80;39.80;;;;;;8361307;28;20095;-55
2024/01/28 10:30:06;;;;;;;0.50;0.50;;;18.80;39.80;;;;;;8343455;28;20119;-55
2024/01/28 10:34:08;;;;;;;0.50;0.50;;;18.70;39.80;;;;;;8361111;28;20045;-54
2024/01/28 10:38:24;;;;;;;0.52;0.50;;;18.70;39.90;;;;;;8360985;28;20391;-55
2024/01/28 10:42:26;;;;;;;0.68;0.60;;;18.70;39.90;;;;;;8360856;28;20025;-53
2024/01/28 10:46:38;;;;;;;0.50;0.50;;;18.70;40.00;;;;;;8360729;28;20123;-54
2024/01/28 10:50:40;;;;;;;0.50;0.50;;;18.60;40.00;;;;;;8360851;28;20033;-52
2024/01/28 10:54:41;;;;;;;0.75;0.60;;;18.60;40.00;;;;;;8360372;28;20044;-54
2024/01/28 10:58:42;;;;;;;0.68;0.68;;;18.60;40.00;;;;;;8360820;28;20058;-50
2024/01/28 11:02:43;;;;;;;;;;;18.60;40.00;;;;;;8361062;28;20510;-51
2024/01/28 11:06:46;;;;;;;0.63;0.60;;;18.70;40.20;;;;;;8360029;28;20286;-51
2024/01/28 11:10:47;;;;;;;0.63;0.60;;;18.70;40.00;;;;;;8360009;28;20048;-49
2024/01/28 11:14:51;;;;;;;0.60;0.60;;;18.70;40.00;;;;;;8360393;28;20048;-50
2024/01/28 11:19:07;;;;;;;0.85;0.70;;;18.70;40.00;;;;;;8360420;28;20029;-50
2024/01/28 11:23:16;;;;;;;0.45;0.40;;;18.70;39.90;;;;;;8359969;28;20466;-50
2024/01/28 11:27:16;;;;;;;0.50;0.50;;;18.80;40.00;;;;;;8359751;28;20033;-50
2024/01/28 11:31:33;;;;;;;0.52;0.50;;;18.80;40.00;;;;;;8359864;28;20045;-50
2024/01/28 11:35:34;;;;;;;0.40;0.40;;;18.70;39.90;;;;;;8359532;28;20035;-51
2024/01/28 11:39:45;;;;;;;0.63;0.63;;;18.70;39.90;;;;;;8359552;28;20033;-51
2024/01/28 11:43:46;;;;;;;;;;;18.70;40.00;;;;;;8359936;28;20601;-49
2024/01/28 11:47:46;;;;;;;0.60;0.57;;;18.70;40.00;;;;;;8366450;28;19905;-51
2024/01/28 11:51:47;;;;;;;0.55;0.50;;;18.70;40.00;;;;;;8366328;28;20452;-49
2024/01/28 11:55:48;;;;;;;0.50;0.50;;;18.70;40.00;;;;;;8366020;28;20121;-50
2024/01/28 11:59:49;;;;;;;0.65;0.60;;;18.70;40.00;;;;;;8366036;28;20032;-51
2024/01/28 12:03:56;;;;;;;0.73;0.50;;;18.70;40.00;;;;;;8365788;28;20037;-48
2024/01/28 12:07:58;;;;;;;0.88;0.70;;;18.70;40.00;;;;;;8365712;28;20044;-54
2024/01/28 12:11:59;;;;;;;0.63;0.63;;;18.70;40.00;;;;;;8365875;28;20404;-55
2024/01/28 12:15:59;;;;;;;0.52;0.50;;;18.70;40.00;;;;;;8365550;28;20060;-55
2024/01/28 12:20:00;;;;;;;0.50;0.50;;;18.70;40.00;;;;;;8365594;28;20479;-54
2024/01/28 12:24:02;;;;;;;0.80;0.60;;;18.70;40.00;;;;;;8364213;28;20029;-55
2024/01/28 12:28:03;;;;;;;0.47;0.47;;;18.70;40.00;;;;;;8364969;28;20037;-55
2024/01/28 12:32:04;;;;;;;;;;;18.70;40.00;;;;;;8364419;28;20025;-55
2024/01/28 12:36:05;;;;;;;0.60;0.60;;;18.70;40.00;;;;;;8363472;28;19917;-55
2024/01/28 12:40:07;;;;;;;0.60;0.60;;;18.70;40.00;;;;;;8363525;28;20116;-54
2024/01/28 12:44:08;;;;;;;0.50;0.50;;;18.70;39.90;;;;;;8364588;28;20210;-54
2024/01/28 12:48:09;;;;;;;0.57;0.52;;;18.70;39.90;;;;;;8364342;28;20067;-54
2024/01/28 12:52:09;;;;;;;0.60;0.60;;;18.70;39.90;;;;;;8364521;28;20120;-55
2024/01/28 12:56:10;;;;;;;0.55;0.55;;;18.70;39.90;;;;;;8361560;28;20017;-54
2024/01/28 13:00:12;;;;;;;0.43;0.43;;;18.70;39.90;;;;;;8364166;28;20033;-55
2024/01/28 13:04:13;;;;;;;0.50;0.50;;;18.70;40.00;;;;;;8364208;28;20040;-54
2024/01/28 13:08:13;;;;;;;0.60;0.60;;;18.70;40.00;;;;;;8362363;28;20080;-55
2024/01/28 13:12:16;;;;;;;1.02;0.70;;;18.70;40.00;;;;;;8362746;28;20067;-55
2024/01/28 13:16:18;;;;;;;0.68;0.50;;;18.80;40.00;;;;;;8363750;28;20048;-53
2024/01/28 13:20:19;;;;;;;0.57;0.57;;;18.70;40.00;;;;;;8363556;28;20044;-51
2024/01/28 13:24:20;;;;;;;0.73;0.70;;;18.70;40.00;;;;;;8363595;28;20037;-51
2024/01/28 13:28:20;;;;;;;0.60;0.60;;;18.70;40.00;;;;;;8363316;28;20463;-52
2024/01/28 13:32:21;;;;;;;0.52;0.50;;;18.70;40.00;;;;;;8363467;28;20067;-50
2024/01/28 13:36:22;;;;;;;0.40;0.40;;;18.70;40.00;;;;;;8361710;28;20138;-50
2024/01/28 13:40:23;;;;;;;1.70;0.80;;;18.70;40.10;;;;;;8362715;28;20128;-48
2024/01/28 13:44:24;;;;;;;5.47;2.83;;;18.60;40.20;;;;;;8363055;28;20036;-50
2024/01/28 13:48:25;;;;;;;3.83;3.05;;;18.50;41.00;;;;;;8362576;28;20041;-49
2024/01/28 13:52:26;;;;;;;5.27;3.67;;;18.40;40.40;;;;;;8362590;28;20037;-50
2024/01/28 13:56:26;;;;;;;5.25;3.63;;;18.40;40.00;;;;;;8353717;28;20294;-50
2024/01/28 14:00:27;;;;;;;12.45;3.85;;;18.60;40.50;;;;;;8364648;28;20033;-51
2024/01/28 14:04:28;;;;;;;6.93;3.03;;;18.70;42.30;;;;;;8364484;28;20059;-51
2024/01/28 14:08:29;;;;;;;6.63;3.25;;;18.80;41.70;;;;;;8362624;28;20534;-50
2024/01/28 14:12:30;;;;;;;13.73;3.30;;;18.90;42.30;;;;;;8363849;28;20044;-48
2024/01/28 14:16:30;;;;;;;8.75;3.15;;;18.90;42.90;;;;;;8364082;28;20033;-51
2024/01/28 14:20:31;;;;;;;10.75;2.97;;;19.10;43.80;;;;;;8363890;28;20426;-52
2024/01/28 14:24:32;;;;;;;6.97;2.60;;;19.20;44.80;;;;;;8363662;28;20215;-53
2024/01/28 14:28:32;;;;;;;4.03;2.17;;;19.20;44.00;;;;;;8363299;28;20041;-49
2024/01/28 14:32:33;;;;;;;6.65;2.40;;;19.30;43.90;;;;;;8362520;28;20149;-51
2024/01/28 14:36:34;;;;;;;4.57;2.25;;;19.20;44.40;;;;;;8360562;28;20040;-49
2024/01/28 14:40:34;;;;;;;9.68;2.15;;;19.30;44.20;;;;;;8350475;28;20029;-53
2024/01/28 14:44:35;;;;;;;3.05;2.03;;;19.30;44.20;;;;;;8345647;28;20046;-54
2024/01/28 14:48:37;;;;;;;6.10;2.30;;;19.30;44.10;;;;;;8336042;28;20119;-52
2024/01/28 14:52:37;;;;;;;7.88;2.10;;;19.30;44.60;;;;;;8351518;28;20048;-50
2024/01/28 14:56:38;;;;;;;7.95;2.00;;;19.30;43.60;;;;;;8347748;28;20064;-55
2024/01/28 15:00:39;;;;;;;6.50;2.10;;;19.30;44.00;;;;;;8346626;28;20449;-52
2024/01/28 15:04:40;;;;;;;8.80;2.60;;;19.30;44.10;;;;;;8330577;28;20107;-52
2024/01/28 15:08:41;;;;;;;6.80;1.77;;;19.30;44.00;;;;;;8338341;28;20132;-53
2024/01/28 15:12:41;;;;;;;5.05;1.95;;;19.30;43.70;;;;;;8357464;28;20103;-52
2024/01/28 15:16:42;;;;;;;9.88;1.95;;;19.30;43.80;;;;;;8351036;28;20041;-53
2024/01/28 15:20:43;;;;;;;9.80;2.05;;;19.30;43.80;;;;;;8362237;28;20029;-54
2024/01/28 15:24:43;;;;;;;8.43;2.45;;;19.40;43.70;;;;;;8362850;28;20033;-53
2024/01/28 15:28:44;;;;;;;10.85;2.17;;;19.40;43.40;;;;;;8362606;28;20060;-55
2024/01/28 15:32:47;;;;;;;2.72;1.85;;;19.40;43.60;;;;;;8342788;28;20044;-54
2024/01/28 15:36:47;;;;;;;7.68;2.78;;;19.40;43.40;;;;;;8328585;28;20064;-54
2024/01/28 15:40:48;;;;;;;3.28;1.92;;;19.40;43.60;;;;;;8347054;28;20021;-56
2024/01/28 15:44:49;;;;;;;4.30;2.33;;;19.50;43.60;;;;;;8337122;28;20052;-54
2024/01/28 15:48:50;;;;;;;8.75;2.00;;;19.40;43.50;;;;;;8359685;28;20394;-52
2024/01/28 15:52:50;;;;;;;9.68;2.38;;;19.40;43.50;;;;;;8326027;28;20574;-52
2024/01/28 15:56:51;;;;;;;6.93;1.88;;;19.40;43.30;;;;;;8342096;28;20065;-53
2024/01/28 16:00:52;;;;;;;5.35;2.33;;;19.40;43.20;;;;;;8356232;28;20055;-51
2024/01/28 16:04:53;;;;;;;4.15;1.88;;;19.40;43.00;;;;;;8350521;28;20545;-55
2024/01/28 16:08:53;;;;;;;3.63;2.10;;;19.40;43.00;;;;;;8326004;28;20068;-54
2024/01/28 16:12:54;;;;;;;11.23;2.20;;;19.30;43.10;;;;;;8326129;28;20033;-53
2024/01/28 16:16:55;;;;;;;11.20;2.28;;;19.30;43.50;;;;;;8326282;28;20395;-53
2024/01/28 16:20:56;;;;;;;5.78;1.90;;;19.20;42.90;;;;;;8326197;28;20044;-53
2024/01/28 16:24:57;;;;;;;;;;;19.20;42.90;;;;;;8326332;28;20038;-53
2024/01/28 16:28:57;;;;;;;9.83;2.03;;;19.20;42.80;;;;;;8353743;28;19909;-54
2024/01/28 16:32:59;;;;;;;3.40;1.70;;;19.20;42.80;;;;;;8363902;28;20071;-51
2024/01/28 16:37:03;;;;;;;2.55;1.92;;;19.10;42.80;;;;;;8363558;28;20041;-53
2024/01/28 16:41:04;;;;;;;3.42;1.60;;;19.10;42.80;;;;;;8364788;28;20037;-54
2024/01/28 16:45:05;;;;;;;3.90;1.55;;;19.10;42.70;;;;;;8364768;28;20061;-53
2024/01/28 16:49:06;;;;;;;;;;;19.10;42.70;;;;;;8365568;28;20044;-53
2024/01/28 16:53:07;;;;;;;5.93;1.90;;;19.10;42.80;;;;;;8364556;28;19905;-53
2024/01/28 16:57:08;;;;;;;6.35;1.70;;;19.10;42.80;;;;;;8364454;28;20325;-54
2024/01/28 17:01:09;;;;;;;4.65;1.58;;;19.10;42.80;;;;;;8363249;28;20033;-54
2024/01/28 17:05:10;;;;;;;2.67;1.45;;;19.00;42.70;;;;;;8364339;28;20048;-54
2024/01/28 17:09:11;;;;;;;4.32;1.77;;;19.00;42.70;;;;;;8363916;28;20056;-55
2024/01/28 17:13:13;;;;;;;4.72;1.60;;;19.00;42.70;;;;;;8363986;28;20036;-55
2024/01/28 17:17:14;;;;;;;2.00;1.77;;;19.00;42.70;;;;;;8363891;28;20500;-53
2024/01/28 17:21:17;;;;;;;3.95;1.40;;;19.00;42.70;;;;;;8363539;28;20372;-53
2024/01/28 17:25:18;;;;;;;2.70;1.65;;;19.00;42.70;;;;;;8362451;28;20029;-55
2024/01/28 17:29:19;;;;;;;5.03;1.60;;;19.00;42.70;;;;;;8363251;28;20104;-53
2024/01/28 17:33:20;;;;;;;2.47;1.45;;;19.00;42.70;;;;;;8364203;28;20029;-52
2024/01/28 17:37:20;;;;;;;2.33;1.40;;;19.00;42.60;;;;;;8363267;28;20040;-53
2024/01/28 17:41:21;;;;;;;3.03;1.83;;;18.90;42.60;;;;;;8362867;28;20033;-53
2024/01/28 17:45:23;;;;;;;3.15;1.23;;;18.90;42.60;;;;;;8362309;28;20029;-55
2024/01/28 17:49:24;;;;;;;6.20;1.77;;;18.90;42.60;;;;;;8362960;28;20483;-54
2024/01/28 17:53:25;;;;;;;2.60;1.48;;;18.90;42.60;;;;;;8362716;28;20395;-54
2024/01/28 17:57:28;;;;;;;1.95;1.48;;;18.90;42.70;;;;;;8344443;28;20083;-49
2024/01/28 18:01:30;;;;;;;3.30;1.35;;;18.80;42.70;;;;;;8362608;28;20368;-49
2024/01/28 18:05:31;;;;;;;6.88;1.63;;;18.80;42.70;;;;;;8362167;28;20029;-51
2024/01/28 18:09:32;;;;;;;2.63;1.35;;;18.80;42.70;;;;;;8361906;28;20532;-49
2024/01/28 18:13:36;;;;;;;2.47;1.33;;;18.80;42.70;;;;;;8361939;28;20064;-49
2024/01/28 18:17:37;;;;;;;1.70;1.27;;;18.80;42.70;;;;;;8361853;28;20033;-49
2024/01/28 18:21:38;;;;;;;1.90;1.38;;;18.80;42.50;;;;;;8361806;28;20025;-51
2024/01/28 18:25:39;;;;;;;2.53;1.38;;;18.80;42.50;;;;;;8361439;28;20044;-49
2024/01/28 18:29:41;;;;;;;3.33;1.60;;;18.80;42.50;;;;;;8361346;28;20087;-50
2024/01/28 18:33:42;;;;;;;2.25;1.42;;;18.80;42.50;;;;;;8361680;28;20037;-51
2024/01/28 18:37:43;;;;;;;2.03;1.30;;;18.80;42.50;;;;;;8361159;28;20035;-49
2024/01/28 18:41:43;;;;;;;1.83;1.20;;;18.80;42.50;;;;;;8361114;28;20033;-50
2024/01/28 18:45:44;;;;;;;1.97;1.40;;;18.80;42.60;;;;;;8360998;28;20036;-50
2024/01/28 18:49:45;;;;;;;1.27;1.10;;;18.80;42.50;;;;;;8361400;28;20323;-51
2024/01/28 18:53:46;;;;;;;2.33;1.23;;;18.80;42.50;;;;;;8360763;28;20037;-50
2024/01/28 18:57:46;;;;;;;1.67;1.15;;;18.80;42.50;;;;;;8360485;28;20033;-51
2024/01/28 19:01:47;;;;;;;3.42;1.33;;;18.80;42.50;;;;;;8360347;28;20033;-50
2024/01/28 19:05:48;;;;;;;1.63;1.30;;;18.80;42.40;;;;;;8360349;28;20040;-51
2024/01/28 19:09:48;;;;;;;1.85;1.10;;;18.80;42.40;;;;;;8360346;28;20061;-54
2024/01/28 19:13:49;;;;;;;4.00;1.75;;;18.80;42.40;;;;;;8359936;28;20058;-54
2024/01/28 19:17:54;;;;;;;1.23;1.10;;;18.80;42.30;;;;;;8360342;28;20395;-54
2024/01/28 19:21:55;;;;;;;1.52;1.10;;;18.80;42.30;;;;;;8359891;28;20044;-53
2024/01/28 19:25:56;;;;;;;1.67;1.20;;;18.80;42.30;;;;;;8359612;28;20372;-54
2024/01/28 19:29:57;;;;;;;1.90;1.33;;;18.80;42.30;;;;;;8360389;28;20033;-53
2024/01/28 19:33:58;;;;;;;1.50;1.02;;;18.80;42.30;;;;;;8360107;28;20673;-54
2024/01/28 19:37:58;;;;;;;2.47;1.30;;;18.80;42.30;;;;;;8359444;28;20029;-54
2024/01/28 19:41:59;;;;;;;2.35;1.25;;;18.80;42.20;;;;;;8359667;28;20037;-54
2024/01/28 19:46:00;;;;;;;1.98;1.25;;;18.80;42.20;;;;;;8359697;28;20114;-54
2024/01/28 19:50:03;;;;;;;1.20;1.08;;;18.80;42.20;;;;;;8359391;28;20082;-53
2024/01/28 19:54:04;;;;;;;2.05;1.40;;;18.90;42.20;;;;;;8359415;28;20029;-55
2024/01/28 19:58:05;;;;;;;1.05;0.95;;;18.80;42.20;;;;;;8359541;28;20036;-53
2024/01/28 20:02:06;;;;;;;3.88;1.23;;;18.80;42.20;;;;;;8359414;28;20084;-53
2024/01/28 20:06:06;;;;;;;2.30;0.95;;;18.80;42.20;;;;;;8360222;28;20099;-53
2024/01/28 20:10:07;;;;;;;1.42;1.27;;;18.90;42.20;;;;;;8364582;28;20060;-54
2024/01/28 20:14:08;;;;;;;1.60;1.00;;;18.80;42.10;;;;;;8365773;28;20068;-55
2024/01/28 20:18:09;;;;;;;1.10;1.00;;;18.80;42.10;;;;;;8365716;28;20033;-52
2024/01/28 20:22:10;;;;;;;2.40;1.15;;;18.80;42.10;;;;;;8365405;28;20639;-50
2024/01/28 20:26:15;;;;;;;1.58;0.80;;;18.90;42.20;;;;;;8365286;28;20037;-51
2024/01/28 20:30:15;;;;;;;1.73;1.20;;;18.80;42.10;;;;;;8365762;28;20036;-50
2024/01/28 20:34:16;;;;;;;1.20;0.95;;;18.90;42.10;;;;;;8365204;28;20037;-50
2024/01/28 20:38:17;;;;;;;;;;;18.80;42.00;;;;;;8365388;28;20029;-49
2024/01/28 20:42:18;;;;;;;1.40;1.00;;;18.80;42.10;;;;;;8364910;28;19905;-50
2024/01/28 20:46:21;;;;;;;1.23;0.93;;;18.80;42.00;;;;;;8364795;28;20064;-50
2024/01/28 20:50:21;;;;;;;1.17;0.90;;;18.80;42.00;;;;;;8364428;28;20099;-50
2024/01/28 20:54:22;;;;;;;1.95;1.33;;;18.90;42.10;;;;;;8364531;28;20083;-51
2024/01/28 20:58:23;;;;;;;0.98;0.93;;;18.80;42.00;;;;;;8364437;28;20075;-51
2024/01/28 21:02:24;;;;;;;1.45;1.00;;;18.90;42.00;;;;;;8364165;28;20036;-50